Time;durP1;ratioP1;P1;durP2;ratioP2;P2;SDS_P1;SDS_P2;PMS_P1;PMS_P2;Temp;Humidity;BMP_temperature;BMP_pressure;BME280_temperature;BME280_humidity;BME280_pressure;Samples;Min_cycle;Max_cycle;Signal;HPM_P1;HPM_P2
2022/07/07 00:01:49;;;;;;;1.25;1.15;;;15.50;99.90;;;;;;4193671;28;20419;-70
2022/07/07 00:03:51;;;;;;;1.77;1.08;;;15.40;99.90;;;;;;4193507;28;20472;-70
2022/07/07 00:05:52;;;;;;;2.17;1.08;;;15.40;99.90;;;;;;4193365;28;20040;-68
2022/07/07 00:07:54;;;;;;;4.85;0.95;;;15.40;99.90;;;;;;4193588;28;20066;-71
2022/07/07 00:09:55;;;;;;;3.50;1.05;;;15.40;99.90;;;;;;4193342;28;20070;-68
2022/07/07 00:11:57;;;;;;;7.78;1.90;;;15.30;99.90;;;;;;4193498;28;20029;-68
2022/07/07 00:13:58;;;;;;;2.80;1.20;;;15.30;99.90;;;;;;4193189;28;20094;-70
2022/07/07 00:16:00;;;;;;;1.38;0.90;;;15.30;99.90;;;;;;4192621;28;20488;-68
2022/07/07 00:18:02;;;;;;;2.95;1.10;;;15.30;99.90;;;;;;4192942;28;20032;-69
2022/07/07 00:20:05;;;;;;;4.38;0.95;;;15.30;99.90;;;;;;4193242;28;20431;-68
2022/07/07 00:22:06;;;;;;;0.70;0.70;;;15.30;99.90;;;;;;4193391;28;20082;-68
2022/07/07 00:24:07;;;;;;;2.25;1.38;;;15.30;99.90;;;;;;4192567;28;20040;-68
2022/07/07 00:26:08;;;;;;;2.78;1.50;;;15.30;99.90;;;;;;4192437;28;20074;-67
2022/07/07 00:28:09;;;;;;;0.95;0.80;;;15.30;99.90;;;;;;4192801;28;20040;-66
2022/07/07 00:30:12;;;;;;;1.65;1.10;;;15.30;99.90;;;;;;4184993;28;20040;-70
2022/07/07 00:32:13;;;;;;;4.45;1.17;;;15.30;99.90;;;;;;4176598;28;20025;-67
2022/07/07 00:34:14;;;;;;;1.00;1.00;;;15.30;99.90;;;;;;4176530;28;20447;-67
2022/07/07 00:36:16;;;;;;;1.25;0.93;;;15.30;99.90;;;;;;4176494;28;20029;-67
2022/07/07 00:38:17;;;;;;;2.00;1.23;;;15.30;99.90;;;;;;4176593;28;20087;-69
2022/07/07 00:40:19;;;;;;;2.30;1.23;;;15.30;99.90;;;;;;4176327;28;20087;-68
2022/07/07 00:42:20;;;;;;;1.25;0.85;;;15.30;99.90;;;;;;4176534;28;20400;-66
2022/07/07 00:44:22;;;;;;;3.20;1.50;;;15.30;99.90;;;;;;4174679;28;20037;-69
2022/07/07 00:46:23;;;;;;;1.40;1.00;;;15.30;99.90;;;;;;4176081;28;20114;-68
2022/07/07 00:48:24;;;;;;;1.23;1.02;;;15.30;99.90;;;;;;4176498;28;20033;-67
2022/07/07 00:50:26;;;;;;;2.55;1.30;;;15.30;99.90;;;;;;4176149;28;20041;-67
2022/07/07 00:52:27;;;;;;;1.23;1.13;;;15.30;99.90;;;;;;4176512;28;20094;-69
2022/07/07 00:54:28;;;;;;;1.52;0.82;;;15.30;99.90;;;;;;4176150;28;20045;-68
2022/07/07 00:56:30;;;;;;;1.95;1.20;;;15.30;99.90;;;;;;4176178;28;20049;-70
2022/07/07 00:58:33;;;;;;;2.78;1.55;;;15.30;99.90;;;;;;4176138;28;20438;-69
2022/07/07 01:00:34;;;;;;;3.00;1.45;;;15.40;99.90;;;;;;4177046;28;20078;-70
2022/07/07 01:02:35;;;;;;;1.27;1.15;;;15.40;99.90;;;;;;4177161;28;20036;-67
2022/07/07 01:04:37;;;;;;;1.52;1.38;;;15.40;99.90;;;;;;4176563;28;20075;-67
2022/07/07 01:06:40;;;;;;;2.30;1.15;;;15.40;99.90;;;;;;4176142;28;20025;-67
2022/07/07 01:08:41;;;;;;;3.63;1.23;;;15.40;99.90;;;;;;4177485;28;20083;-67
2022/07/07 01:10:43;;;;;;;1.40;1.30;;;15.40;99.90;;;;;;4176236;28;20075;-66
2022/07/07 01:12:45;;;;;;;1.80;1.10;;;15.40;99.90;;;;;;4176226;28;20091;-67
2022/07/07 01:14:46;;;;;;;3.22;1.67;;;15.40;99.90;;;;;;4176112;28;20115;-69
2022/07/07 01:16:48;;;;;;;2.33;0.90;;;15.40;99.90;;;;;;4185561;28;20477;-71
2022/07/07 01:18:49;;;;;;;4.22;0.98;;;15.40;99.90;;;;;;4192344;28;20082;-67
2022/07/07 01:20:50;;;;;;;1.83;1.00;;;15.50;99.90;;;;;;4192559;28;20098;-67
2022/07/07 01:22:53;;;;;;;3.97;1.13;;;15.40;99.90;;;;;;4192698;28;20086;-68
2022/07/07 01:24:54;;;;;;;0.90;0.90;;;15.50;99.90;;;;;;4192683;28;20033;-68
2022/07/07 01:27:12;;;;;;;3.10;1.00;;;15.40;99.90;;;;;;4195190;28;20036;-67
2022/07/07 01:29:13;;;;;;;2.70;1.00;;;15.40;99.90;;;;;;4194941;28;20488;-67
2022/07/07 01:31:15;;;;;;;1.85;1.25;;;15.50;99.90;;;;;;4196029;28;20443;-67
2022/07/07 01:33:16;;;;;;;3.15;1.50;;;15.40;99.90;;;;;;4195098;28;20389;-67
2022/07/07 01:35:17;;;;;;;3.78;0.90;;;15.30;99.90;;;;;;4184336;28;20107;-67
2022/07/07 01:37:20;;;;;;;2.17;1.05;;;15.30;99.90;;;;;;4178839;28;20059;-70
2022/07/07 01:39:22;;;;;;;1.90;0.90;;;15.30;99.90;;;;;;4179304;28;20033;-72
2022/07/07 01:41:23;;;;;;;2.45;1.10;;;15.20;99.90;;;;;;4178638;28;20086;-67
2022/07/07 01:43:24;;;;;;;2.55;1.20;;;15.20;99.90;;;;;;4177516;28;20103;-71
2022/07/07 01:45:25;;;;;;;1.13;1.08;;;15.20;99.90;;;;;;4178959;28;20362;-69
2022/07/07 01:47:27;;;;;;;2.20;0.98;;;15.20;99.90;;;;;;4178843;28;20090;-67
2022/07/07 01:49:29;;;;;;;4.90;1.45;;;15.10;99.90;;;;;;4178976;28;20033;-70
2022/07/07 01:51:31;;;;;;;3.50;1.20;;;15.10;99.90;;;;;;4178940;28;20432;-67
2022/07/07 01:53:32;;;;;;;1.08;1.00;;;15.00;99.90;;;;;;4178920;28;20041;-66
2022/07/07 01:55:33;;;;;;;3.05;0.70;;;15.10;99.90;;;;;;4178563;28;20045;-67
2022/07/07 01:57:34;;;;;;;3.40;1.15;;;15.00;99.90;;;;;;4178814;28;20431;-67
2022/07/07 01:59:37;;;;;;;4.07;1.08;;;15.00;99.90;;;;;;4183084;28;20036;-68
2022/07/07 02:01:38;;;;;;;2.25;1.10;;;15.00;99.90;;;;;;4195917;28;20062;-67
2022/07/07 02:03:40;;;;;;;0.98;0.98;;;14.90;99.90;;;;;;4195115;28;20450;-67
2022/07/07 02:05:41;;;;;;;1.20;1.10;;;14.90;99.90;;;;;;4194254;28;20449;-67
2022/07/07 02:07:42;;;;;;;2.13;1.13;;;14.90;99.90;;;;;;4178003;28;20075;-69
2022/07/07 02:09:43;;;;;;;1.30;1.17;;;14.90;99.90;;;;;;4178763;28;20025;-69
2022/07/07 02:11:44;;;;;;;2.70;1.23;;;14.80;99.90;;;;;;4178265;28;20095;-69
2022/07/07 02:13:48;;;;;;;2.10;1.10;;;14.80;99.90;;;;;;4178632;28;20033;-67
2022/07/07 02:15:49;;;;;;;1.20;1.00;;;14.70;99.90;;;;;;4178087;28;20083;-67
2022/07/07 02:17:50;;;;;;;2.55;1.20;;;14.70;99.90;;;;;;4178620;28;20483;-67
2022/07/07 02:19:52;;;;;;;3.72;1.23;;;14.70;99.90;;;;;;4178368;28;20029;-66
2022/07/07 02:21:53;;;;;;;3.85;1.98;;;14.70;99.90;;;;;;4178230;28;20064;-67
2022/07/07 02:23:55;;;;;;;1.58;1.30;;;14.70;99.90;;;;;;4178348;28;20029;-67
2022/07/07 02:25:56;;;;;;;1.50;1.40;;;14.70;99.90;;;;;;4177726;28;20040;-67
2022/07/07 02:27:57;;;;;;;6.35;1.70;;;14.70;99.90;;;;;;4177988;28;20036;-67
2022/07/07 02:29:59;;;;;;;1.40;1.30;;;14.60;99.90;;;;;;4178215;28;20102;-70
2022/07/07 02:32:00;;;;;;;4.03;1.35;;;14.60;99.90;;;;;;4178566;28;20103;-67
2022/07/07 02:34:01;;;;;;;1.73;1.27;;;14.60;99.90;;;;;;4178803;28;20090;-67
2022/07/07 02:36:03;;;;;;;4.47;1.63;;;14.60;99.90;;;;;;4178303;28;20029;-66
2022/07/07 02:38:05;;;;;;;1.58;1.48;;;14.60;99.90;;;;;;4177902;28;20115;-69
2022/07/07 02:40:07;;;;;;;5.85;1.60;;;14.60;99.90;;;;;;4177953;28;20441;-69
2022/07/07 02:42:08;;;;;;;3.13;1.50;;;14.60;99.90;;;;;;4177742;28;20021;-67
2022/07/07 02:44:09;;;;;;;1.58;1.40;;;14.60;99.90;;;;;;4178166;28;20033;-67
2022/07/07 02:46:10;;;;;;;4.35;1.38;;;14.50;99.90;;;;;;4177657;28;20059;-68
2022/07/07 02:48:14;;;;;;;1.58;1.48;;;14.50;99.90;;;;;;4178059;28;20033;-69
2022/07/07 02:50:15;;;;;;;3.38;1.83;;;14.40;99.90;;;;;;4177921;28;20029;-67
2022/07/07 02:52:16;;;;;;;1.58;1.48;;;14.50;99.90;;;;;;4177904;28;20075;-68
2022/07/07 02:54:18;;;;;;;2.28;1.35;;;14.40;99.90;;;;;;4178961;28;20438;-67
2022/07/07 02:56:19;;;;;;;1.85;1.45;;;14.40;99.90;;;;;;4177732;28;20377;-69
2022/07/07 02:58:20;;;;;;;2.80;1.42;;;14.40;99.90;;;;;;4177738;28;20469;-68
2022/07/07 03:00:21;;;;;;;4.32;1.55;;;14.40;99.90;;;;;;4178827;28;20021;-69
2022/07/07 03:02:22;;;;;;;2.08;1.88;;;14.50;99.90;;;;;;4177689;28;20041;-68
2022/07/07 03:04:23;;;;;;;2.95;1.90;;;14.50;99.90;;;;;;4177527;28;20033;-69
2022/07/07 03:06:24;;;;;;;2.08;1.88;;;14.60;99.90;;;;;;4177646;28;20102;-69
2022/07/07 03:08:25;;;;;;;1.92;1.60;;;14.80;99.90;;;;;;4176189;28;20111;-70
2022/07/07 03:10:27;;;;;;;2.35;1.38;;;15.20;99.90;;;;;;4178685;28;20090;-69
2022/07/07 03:12:28;;;;;;;1.42;1.30;;;15.60;99.90;;;;;;4177232;28;20034;-69
2022/07/07 03:14:29;;;;;;;1.90;1.35;;;16.00;99.90;;;;;;4177770;28;20546;-69
2022/07/07 03:16:30;;;;;;;4.40;1.63;;;16.30;99.90;;;;;;4177162;28;20033;-69
2022/07/07 03:18:32;;;;;;;4.43;1.45;;;16.70;99.90;;;;;;4177324;28;20040;-68
2022/07/07 03:20:33;;;;;;;3.15;1.52;;;17.10;99.90;;;;;;4177412;28;20069;-69
2022/07/07 03:22:34;;;;;;;3.50;1.50;;;17.50;99.90;;;;;;4177530;28;20090;-69
2022/07/07 03:24:36;;;;;;;4.03;1.55;;;17.90;99.90;;;;;;4187050;28;20079;-70
2022/07/07 03:26:37;;;;;;;3.83;1.50;;;18.10;99.90;;;;;;4193699;28;20098;-67
2022/07/07 03:28:38;;;;;;;2.00;1.38;;;18.30;99.90;;;;;;4177493;28;20556;-69
2022/07/07 03:30:39;;;;;;;3.83;1.58;;;18.40;99.90;;;;;;4177772;28;20025;-70
2022/07/07 03:32:40;;;;;;;5.00;1.83;;;18.70;99.90;;;;;;4177560;28;20033;-70
2022/07/07 03:34:41;;;;;;;5.32;1.40;;;18.80;99.90;;;;;;4177155;28;20899;-70
2022/07/07 03:36:43;;;;;;;3.42;1.30;;;18.90;99.90;;;;;;4177150;28;20094;-71
2022/07/07 03:38:44;;;;;;;4.55;1.50;;;19.30;99.90;;;;;;4177006;28;20030;-69
2022/07/07 03:40:45;;;;;;;1.27;1.17;;;19.80;99.90;;;;;;4177134;28;20025;-71
2022/07/07 03:42:46;;;;;;;1.23;1.13;;;20.30;99.90;;;;;;4177965;28;20037;-71
2022/07/07 03:44:47;;;;;;;4.13;1.35;;;20.50;99.90;;;;;;4193725;28;20362;-69
2022/07/07 03:46:48;;;;;;;2.70;1.40;;;20.70;99.90;;;;;;4191053;28;20448;-68
2022/07/07 03:48:50;;;;;;;2.22;1.40;;;20.80;99.90;;;;;;4193166;28;20036;-71
2022/07/07 03:50:51;;;;;;;2.20;0.90;;;20.90;99.90;;;;;;4192243;28;20086;-69
2022/07/07 03:52:52;;;;;;;2.05;1.23;;;21.00;99.90;;;;;;4193399;28;20074;-69
2022/07/07 03:54:53;;;;;;;2.55;1.00;;;20.90;99.90;;;;;;4193362;28;20392;-71
2022/07/07 03:56:54;;;;;;;1.38;0.93;;;21.10;99.90;;;;;;4193060;28;20045;-72
2022/07/07 03:58:56;;;;;;;4.03;1.23;;;21.10;99.90;;;;;;4193221;28;20047;-69
2022/07/07 04:00:57;;;;;;;3.72;1.10;;;21.00;99.90;;;;;;4192756;28;20052;-67
2022/07/07 04:02:58;;;;;;;2.33;1.67;;;21.10;99.90;;;;;;4193502;28;20546;-68
2022/07/07 04:05:00;;;;;;;2.97;0.98;;;21.10;99.90;;;;;;4191631;28;20079;-69
2022/07/07 04:07:01;;;;;;;2.17;0.90;;;21.50;99.90;;;;;;4192906;28;20697;-68
2022/07/07 04:09:02;;;;;;;2.28;1.50;;;21.90;99.90;;;;;;4192952;28;20623;-69
2022/07/07 04:11:04;;;;;;;6.38;1.17;;;21.90;99.90;;;;;;4193172;28;20074;-68
2022/07/07 04:13:05;;;;;;;3.17;1.50;;;22.00;99.90;;;;;;4193102;28;20025;-68
2022/07/07 04:15:06;;;;;;;2.38;1.23;;;21.90;99.90;;;;;;4177536;28;20057;-67
2022/07/07 04:17:08;;;;;;;4.85;1.55;;;22.20;99.90;;;;;;4174733;28;20040;-67
2022/07/07 04:19:09;;;;;;;2.58;1.10;;;22.70;99.90;;;;;;4176648;28;20079;-70
2022/07/07 04:21:10;;;;;;;5.75;1.27;;;23.30;99.90;;;;;;4175946;28;20037;-68
2022/07/07 04:23:11;;;;;;;2.10;1.48;;;23.60;99.90;;;;;;4176431;28;20087;-66
2022/07/07 04:25:12;;;;;;;9.00;1.20;;;23.90;99.90;;;;;;4176160;28;20083;-68
2022/07/07 04:27:13;;;;;;;3.03;1.08;;;23.90;99.90;;;;;;4176387;28;20535;-68
2022/07/07 04:29:15;;;;;;;2.45;1.08;;;24.00;99.90;;;;;;4176421;28;20044;-67
2022/07/07 04:31:16;;;;;;;3.72;1.00;;;24.30;99.90;;;;;;4176870;28;20528;-71
2022/07/07 04:33:17;;;;;;;2.50;1.02;;;24.50;99.60;;;;;;4176172;28;20052;-66
2022/07/07 04:35:18;;;;;;;2.72;1.30;;;24.20;99.20;;;;;;4176197;28;20041;-70
2022/07/07 04:37:19;;;;;;;4.65;1.00;;;24.20;99.30;;;;;;4176423;28;20032;-69
2022/07/07 04:39:20;;;;;;;5.65;0.88;;;24.20;98.90;;;;;;4176022;28;20543;-66
2022/07/07 04:41:22;;;;;;;2.00;0.88;;;24.30;98.70;;;;;;4175717;28;20493;-69
2022/07/07 04:43:23;;;;;;;1.13;0.90;;;24.60;98.50;;;;;;4175869;28;20083;-67
2022/07/07 04:45:24;;;;;;;2.67;1.13;;;24.90;98.10;;;;;;4175838;28;20056;-67
2022/07/07 04:47:25;;;;;;;3.60;1.10;;;25.20;97.80;;;;;;4175995;28;20037;-66
2022/07/07 04:49:26;;;;;;;3.40;0.95;;;25.60;97.30;;;;;;4176012;28;20474;-68
2022/07/07 04:51:28;;;;;;;1.42;0.80;;;25.90;96.70;;;;;;4175844;28;20033;-69
2022/07/07 04:53:29;;;;;;;0.73;0.70;;;25.80;96.40;;;;;;4176081;28;20098;-67
2022/07/07 04:55:31;;;;;;;5.50;1.25;;;25.70;96.20;;;;;;4175698;28;20102;-64
2022/07/07 04:57:32;;;;;;;3.63;0.88;;;25.50;96.20;;;;;;4175898;28;20419;-68
2022/07/07 04:59:33;;;;;;;0.93;0.77;;;25.80;96.30;;;;;;4175843;28;20045;-67
2022/07/07 05:01:36;;;;;;;2.88;0.90;;;26.40;95.70;;;;;;4178538;28;20078;-69
2022/07/07 05:03:37;;;;;;;2.67;0.80;;;26.90;95.10;;;;;;4179312;28;20044;-67
2022/07/07 05:05:38;;;;;;;1.25;1.00;;;26.20;94.60;;;;;;4178968;28;20037;-67
2022/07/07 05:07:39;;;;;;;5.00;1.10;;;25.90;94.80;;;;;;4178992;28;21398;-69
2022/07/07 05:09:41;;;;;;;5.22;1.48;;;25.50;94.90;;;;;;4178940;28;20033;-68
2022/07/07 05:11:42;;;;;;;1.20;1.10;;;25.10;95.10;;;;;;4179167;28;20436;-67
2022/07/07 05:13:43;;;;;;;2.78;1.27;;;24.30;95.70;;;;;;4177403;28;20079;-65
2022/07/07 05:15:44;;;;;;;2.40;1.02;;;23.90;96.30;;;;;;4178351;28;20504;-66
2022/07/07 05:17:45;;;;;;;1.90;1.10;;;24.30;96.30;;;;;;4178102;28;20049;-66
2022/07/07 05:19:46;;;;;;;3.35;1.10;;;24.20;96.40;;;;;;4179142;28;20033;-66
2022/07/07 05:21:48;;;;;;;4.68;1.30;;;24.50;96.10;;;;;;4178697;28;20107;-67
2022/07/07 05:23:49;;;;;;;4.47;1.02;;;24.40;96.00;;;;;;4179048;28;20042;-67
2022/07/07 05:25:51;;;;;;;5.32;0.93;;;25.00;95.90;;;;;;4178893;28;20428;-66
2022/07/07 05:27:53;;;;;;;2.70;1.08;;;25.70;95.40;;;;;;4178665;28;20090;-66
2022/07/07 05:29:54;;;;;;;5.45;3.22;;;25.60;95.00;;;;;;4178977;28;20025;-66
2022/07/07 05:31:55;;;;;;;4.18;2.35;;;25.80;94.90;;;;;;4179331;28;20473;-68
2022/07/07 05:33:56;;;;;;;1.35;1.23;;;26.10;94.70;;;;;;4179176;28;20411;-68
2022/07/07 05:35:58;;;;;;;3.05;0.85;;;25.80;94.80;;;;;;4178772;28;20111;-67
2022/07/07 05:37:59;;;;;;;2.30;0.98;;;26.70;94.40;;;;;;4178653;28;20454;-66
2022/07/07 05:40:00;;;;;;;2.88;1.25;;;27.30;93.90;;;;;;4178489;28;20025;-66
2022/07/07 05:42:02;;;;;;;8.40;1.83;;;27.60;93.30;;;;;;4178788;28;20428;-66
2022/07/07 05:44:03;;;;;;;1.70;1.08;;;27.60;93.20;;;;;;4177957;28;20436;-67
2022/07/07 05:46:04;;;;;;;2.40;1.00;;;28.00;92.80;;;;;;4178737;28;20086;-67
2022/07/07 05:48:06;;;;;;;1.20;0.80;;;28.50;92.60;;;;;;4177928;28;20099;-68
2022/07/07 05:50:09;;;;;;;3.42;1.60;;;29.10;91.90;;;;;;4178320;28;20041;-68
2022/07/07 05:52:10;;;;;;;1.98;1.25;;;28.80;91.70;;;;;;4178247;28;20021;-66
2022/07/07 05:54:11;;;;;;;2.67;1.13;;;28.70;91.60;;;;;;4178636;28;20091;-67
2022/07/07 05:56:12;;;;;;;2.83;0.98;;;28.90;91.20;;;;;;4178168;28;20455;-67
2022/07/07 05:58:15;;;;;;;2.90;1.00;;;29.00;91.00;;;;;;4178313;28;20033;-69
2022/07/07 06:00:17;;;;;;;2.85;1.02;;;29.20;90.70;;;;;;4178069;28;20456;-65
2022/07/07 06:02:18;;;;;;;2.30;1.35;;;28.20;90.90;;;;;;4178371;28;20049;-66
2022/07/07 06:04:19;;;;;;;3.78;1.20;;;27.80;91.30;;;;;;4176881;28;20044;-67
2022/07/07 06:06:21;;;;;;;2.35;1.20;;;27.60;91.40;;;;;;4178342;28;20021;-68
2022/07/07 06:08:22;;;;;;;3.15;1.27;;;27.70;91.40;;;;;;4176702;28;20071;-66
2022/07/07 06:10:23;;;;;;;1.98;0.93;;;27.70;91.20;;;;;;4178039;28;20447;-70
2022/07/07 06:12:25;;;;;;;1.75;1.00;;;27.80;91.10;;;;;;4176976;28;20756;-65
2022/07/07 06:14:26;;;;;;;1.42;0.95;;;28.00;90.80;;;;;;4177770;28;20036;-67
2022/07/07 06:16:41;;;;;;;3.13;1.60;;;28.20;90.70;;;;;;4178252;28;20082;-68
2022/07/07 06:18:42;;;;;;;1.80;1.52;;;28.40;90.40;;;;;;4177909;28;20025;-65
2022/07/07 06:20:43;;;;;;;2.85;1.42;;;28.10;90.40;;;;;;4177746;28;20040;-66
2022/07/07 06:22:44;;;;;;;2.92;1.10;;;28.30;90.40;;;;;;4177678;28;20098;-67
2022/07/07 06:24:46;;;;;;;4.30;1.05;;;28.90;90.10;;;;;;4177993;28;20087;-69
2022/07/07 06:26:47;;;;;;;3.08;0.60;;;29.10;89.30;;;;;;4177656;28;20045;-70
2022/07/07 06:28:48;;;;;;;0.73;0.70;;;29.00;88.20;;;;;;4178239;28;20091;-65
2022/07/07 06:30:49;;;;;;;1.52;1.05;;;28.70;88.00;;;;;;4177885;28;20086;-66
2022/07/07 06:32:51;;;;;;;3.00;0.60;;;28.40;88.10;;;;;;4178274;28;20044;-66
2022/07/07 06:34:52;;;;;;;1.38;0.75;;;28.70;87.60;;;;;;4177543;28;20033;-67
2022/07/07 06:36:53;;;;;;;3.53;1.13;;;28.50;86.80;;;;;;4177710;28;20099;-65
2022/07/07 06:38:55;;;;;;;4.25;1.13;;;28.80;86.70;;;;;;4177617;28;20033;-66
2022/07/07 06:41:00;;;;;;;3.92;0.73;;;28.90;86.40;;;;;;4177642;28;20033;-65
2022/07/07 06:43:01;;;;;;;2.00;0.50;;;29.00;85.50;;;;;;4177708;28;20045;-66
2022/07/07 06:45:03;;;;;;;3.60;0.57;;;29.10;84.90;;;;;;4177801;28;20025;-69
2022/07/07 06:47:04;;;;;;;1.65;0.70;;;28.90;85.30;;;;;;4177600;28;20378;-70
2022/07/07 06:49:06;;;;;;;1.77;0.43;;;28.70;84.80;;;;;;4177013;28;20037;-65
2022/07/07 06:51:07;;;;;;;1.17;0.32;;;28.90;84.10;;;;;;4177569;28;20469;-69
2022/07/07 06:53:08;;;;;;;0.85;0.60;;;29.20;83.30;;;;;;4176539;28;20044;-70
2022/07/07 06:55:10;;;;;;;2.05;0.52;;;29.30;82.70;;;;;;4177130;28;20091;-69
2022/07/07 06:57:11;;;;;;;0.60;0.45;;;29.00;82.50;;;;;;4176940;28;20483;-66
2022/07/07 06:59:12;;;;;;;1.42;0.40;;;28.70;82.80;;;;;;4177459;28;20037;-68
2022/07/07 07:01:13;;;;;;;1.58;0.50;;;28.80;83.00;;;;;;4176806;28;20033;-69
2022/07/07 07:03:15;;;;;;;2.83;0.38;;;29.00;82.10;;;;;;4177761;28;20083;-70
2022/07/07 07:05:16;;;;;;;10.32;1.33;;;29.70;81.40;;;;;;4177318;28;20047;-69
2022/07/07 07:07:18;;;;;;;8.35;1.38;;;29.80;80.20;;;;;;4177567;28;20025;-67
2022/07/07 07:09:19;;;;;;;14.23;2.13;;;29.20;80.60;;;;;;4177178;28;20032;-66
2022/07/07 07:11:21;;;;;;;3.95;0.50;;;28.60;81.20;;;;;;4176892;28;20033;-68
2022/07/07 07:13:22;;;;;;;3.15;0.50;;;27.80;82.20;;;;;;4177089;28;20045;-66
2022/07/07 07:15:23;;;;;;;3.78;0.65;;;27.00;83.40;;;;;;4177145;28;20082;-67
2022/07/07 07:17:24;;;;;;;0.43;0.40;;;26.20;84.80;;;;;;4176497;28;20461;-67
2022/07/07 07:19:26;;;;;;;0.77;0.47;;;25.30;85.90;;;;;;4176590;28;20083;-66
2022/07/07 07:21:27;;;;;;;0.57;0.32;;;25.00;86.80;;;;;;4177244;28;20029;-67
2022/07/07 07:23:28;;;;;;;3.97;1.30;;;24.90;87.00;;;;;;4176864;28;20029;-67
2022/07/07 07:25:29;;;;;;;3.70;0.75;;;24.70;87.50;;;;;;4177151;28;20075;-70
2022/07/07 07:27:32;;;;;;;2.55;0.60;;;24.20;88.50;;;;;;4176648;28;20029;-68
2022/07/07 07:29:33;;;;;;;1.98;0.60;;;24.20;89.10;;;;;;4177070;28;20017;-68
2022/07/07 07:31:34;;;;;;;6.90;1.83;;;24.30;89.20;;;;;;4176694;28;20021;-66
2022/07/07 07:33:36;;;;;;;6.18;1.20;;;24.30;89.00;;;;;;4177057;28;20025;-68
2022/07/07 07:35:37;;;;;;;16.67;2.58;;;24.30;89.70;;;;;;4176342;28;20115;-66
2022/07/07 07:37:39;;;;;;;2.88;0.65;;;24.40;89.10;;;;;;4176577;28;20083;-65
2022/07/07 07:39:40;;;;;;;2.38;0.95;;;24.20;88.90;;;;;;4176837;28;20017;-66
2022/07/07 07:41:43;;;;;;;2.65;0.63;;;24.30;89.00;;;;;;4176543;28;20094;-69
2022/07/07 07:43:44;;;;;;;2.58;0.75;;;24.10;89.00;;;;;;4176646;28;20048;-69
2022/07/07 07:45:46;;;;;;;14.40;1.92;;;24.20;89.00;;;;;;4176508;28;20040;-67
2022/07/07 07:47:47;;;;;;;13.82;1.75;;;24.30;88.10;;;;;;4176719;28;20086;-66
2022/07/07 07:49:49;;;;;;;9.85;1.63;;;24.40;88.00;;;;;;4176552;28;20041;-68
2022/07/07 07:51:50;;;;;;;2.70;0.80;;;24.90;87.90;;;;;;4176276;28;20025;-69
2022/07/07 07:53:51;;;;;;;1.95;0.80;;;25.20;87.60;;;;;;4176417;28;20086;-66
2022/07/07 07:55:53;;;;;;;2.72;0.70;;;25.30;87.60;;;;;;4176128;28;20098;-67
2022/07/07 07:57:54;;;;;;;2.33;0.60;;;25.40;87.40;;;;;;4176089;28;20139;-66
2022/07/07 07:59:55;;;;;;;2.78;0.50;;;25.80;86.90;;;;;;4176670;28;20424;-67
2022/07/07 08:01:57;;;;;;;2.55;0.60;;;26.20;85.50;;;;;;4176352;28;20074;-65
2022/07/07 08:03:58;;;;;;;1.27;0.40;;;26.30;85.30;;;;;;4176675;28;20028;-65
2022/07/07 08:05:59;;;;;;;0.35;0.25;;;26.60;84.30;;;;;;4176372;28;20542;-66
2022/07/07 08:08:00;;;;;;;0.20;0.20;;;26.20;84.00;;;;;;4176063;28;20037;-65
2022/07/07 08:10:02;;;;;;;0.50;0.50;;;25.30;85.60;;;;;;4175915;28;20098;-68
2022/07/07 08:12:03;;;;;;;1.63;0.40;;;24.80;88.00;;;;;;4176215;28;20025;-67
2022/07/07 08:14:04;;;;;;;2.97;0.60;;;24.80;88.00;;;;;;4176083;28;20037;-67
2022/07/07 08:16:06;;;;;;;1.23;0.70;;;24.80;88.50;;;;;;4176050;28;20056;-66
2022/07/07 08:18:07;;;;;;;1.25;0.50;;;24.70;88.70;;;;;;4176340;28;20591;-66
2022/07/07 08:20:09;;;;;;;0.60;0.50;;;24.60;88.30;;;;;;4176048;28;20532;-68
2022/07/07 08:22:10;;;;;;;0.63;0.50;;;24.40;88.40;;;;;;4176422;28;20405;-66
2022/07/07 08:24:15;;;;;;;0.85;0.60;;;24.30;88.00;;;;;;4176013;28;20017;-67
2022/07/07 08:26:16;;;;;;;0.50;0.50;;;24.30;88.00;;;;;;4176292;28;20029;-66
2022/07/07 08:28:17;;;;;;;0.98;0.40;;;24.10;87.50;;;;;;4175931;28;20025;-68
2022/07/07 08:30:18;;;;;;;4.05;0.65;;;24.00;87.70;;;;;;4176074;28;20067;-66
2022/07/07 08:32:20;;;;;;;2.78;1.65;;;24.20;88.20;;;;;;4176028;28;20106;-67
2022/07/07 08:34:21;;;;;;;3.50;0.50;;;24.10;88.20;;;;;;4176209;28;20025;-66
2022/07/07 08:36:22;;;;;;;0.75;0.75;;;24.10;88.90;;;;;;4175523;28;20032;-65
2022/07/07 08:38:23;;;;;;;3.90;0.45;;;24.10;87.40;;;;;;4176097;28;20048;-66
2022/07/07 08:40:25;;;;;;;2.88;0.60;;;24.10;87.30;;;;;;4175811;28;20166;-64
2022/07/07 08:42:26;;;;;;;2.17;0.70;;;24.20;87.80;;;;;;4176269;28;20033;-65
2022/07/07 08:44:28;;;;;;;13.25;1.88;;;24.40;87.80;;;;;;4175518;28;20493;-64
2022/07/07 08:46:29;;;;;;;1.75;0.45;;;24.60;87.90;;;;;;4175871;28;20491;-65
2022/07/07 08:48:30;;;;;;;7.45;1.00;;;24.80;87.70;;;;;;4175973;28;20063;-66
2022/07/07 08:50:31;;;;;;;5.95;1.25;;;25.10;87.50;;;;;;4175564;28;20041;-66
2022/07/07 08:52:33;;;;;;;10.60;1.65;;;25.40;87.50;;;;;;4175810;28;20098;-66
2022/07/07 08:54:37;;;;;;;1.73;0.40;;;25.50;87.40;;;;;;4175692;28;20083;-66
2022/07/07 08:56:39;;;;;;;6.80;0.93;;;25.20;86.70;;;;;;4175740;28;20566;-67
2022/07/07 08:58:42;;;;;;;0.75;0.75;;;25.10;87.90;;;;;;4175528;28;20469;-66
2022/07/07 09:00:43;;;;;;;0.80;0.40;;;25.10;88.20;;;;;;4175775;28;20033;-67
2022/07/07 09:02:45;;;;;;;0.40;0.30;;;25.30;88.00;;;;;;4175671;28;20033;-64
2022/07/07 09:04:46;;;;;;;2.58;0.73;;;25.30;87.70;;;;;;4175911;28;20040;-69
2022/07/07 09:06:58;;;;;;;1.33;0.50;;;24.90;88.50;;;;;;4175412;28;20067;-64
2022/07/07 09:09:03;;;;;;;1.15;0.70;;;24.50;88.40;;;;;;4176014;28;20051;-66
2022/07/07 09:11:07;;;;;;;0.93;0.70;;;24.20;89.50;;;;;;4175312;28;20094;-68
2022/07/07 09:13:29;;;;;;;0.57;0.50;;;24.20;88.40;;;;;;4175956;28;20481;-66
2022/07/07 09:15:38;;;;;;;0.95;0.50;;;24.00;86.60;;;;;;4175452;28;20037;-67
2022/07/07 09:17:41;;;;;;;1.70;0.63;;;23.80;86.70;;;;;;4175739;28;20049;-65
2022/07/07 09:19:43;;;;;;;3.08;0.68;;;23.60;88.10;;;;;;4175271;28;20019;-66
2022/07/07 09:21:45;;;;;;;1.90;0.50;;;23.60;89.00;;;;;;4175758;28;20079;-66
2022/07/07 09:23:54;;;;;;;0.77;0.50;;;23.70;89.20;;;;;;4174852;28;20032;-65
2022/07/07 09:25:55;;;;;;;1.02;0.75;;;23.70;89.30;;;;;;4175122;28;20044;-66
2022/07/07 09:28:05;;;;;;;2.33;0.50;;;23.70;89.60;;;;;;4175543;28;20159;-66
2022/07/07 09:30:07;;;;;;;1.70;0.70;;;23.80;89.60;;;;;;4175332;28;20033;-65
2022/07/07 09:32:09;;;;;;;0.95;0.60;;;24.20;89.40;;;;;;4175726;28;20033;-66
2022/07/07 09:34:13;;;;;;;3.97;0.70;;;24.30;89.00;;;;;;4175480;28;20029;-66
2022/07/07 09:38:42;;;;;;;22.70;4.45;;;24.30;88.30;;;;;;4175888;28;20098;-67
2022/07/07 09:40:53;;;;;;;11.25;1.25;;;24.50;88.50;;;;;;4175209;28;20071;-65
2022/07/07 09:43:02;;;;;;;1.38;0.50;;;24.50;86.20;;;;;;4175487;28;20044;-65
2022/07/07 09:45:09;;;;;;;0.52;0.52;;;24.50;85.50;;;;;;4175330;28;20091;-66
2022/07/07 09:47:11;;;;;;;5.60;1.33;;;24.00;86.80;;;;;;4175292;28;20099;-66
2022/07/07 09:49:12;;;;;;;0.93;0.52;;;23.90;87.90;;;;;;4178143;28;20079;-66
2022/07/07 09:51:24;;;;;;;0.90;0.90;;;24.00;87.90;;;;;;4178428;28;20079;-64
2022/07/07 09:53:25;;;;;;;0.85;0.52;;;24.10;87.70;;;;;;4178019;28;20071;-67
2022/07/07 09:55:26;;;;;;;1.85;0.80;;;24.10;87.50;;;;;;4177728;28;20053;-66
2022/07/07 09:57:28;;;;;;;1.08;0.90;;;24.00;85.50;;;;;;4178114;28;20037;-66
2022/07/07 09:59:29;;;;;;;1.67;0.68;;;24.00;85.60;;;;;;4177932;28;20461;-67
2022/07/07 10:01:33;;;;;;;0.80;0.80;;;24.10;85.40;;;;;;4178218;28;20126;-67
2022/07/07 10:03:35;;;;;;;1.95;1.60;;;24.00;85.20;;;;;;4178410;28;20083;-66
2022/07/07 10:05:36;;;;;;;0.77;0.70;;;23.90;85.80;;;;;;4178225;28;20048;-66
2022/07/07 10:07:38;;;;;;;2.38;0.52;;;23.80;86.10;;;;;;4177980;28;20033;-67
2022/07/07 10:09:43;;;;;;;1.73;0.70;;;23.90;86.60;;;;;;4178224;28;20037;-68
2022/07/07 10:11:50;;;;;;;2.33;0.80;;;23.90;86.40;;;;;;4177778;28;20025;-65
2022/07/07 10:13:52;;;;;;;1.95;0.80;;;24.10;86.90;;;;;;4178343;28;20033;-67
2022/07/07 10:15:54;;;;;;;1.95;1.00;;;24.20;87.60;;;;;;4177717;28;20103;-66
2022/07/07 10:17:56;;;;;;;0.57;0.57;;;24.10;88.00;;;;;;4178162;28;20041;-68
2022/07/07 10:19:58;;;;;;;4.13;0.70;;;24.20;88.10;;;;;;4178102;28;20439;-65
2022/07/07 10:22:02;;;;;;;1.50;0.70;;;24.30;87.80;;;;;;4177952;28;20087;-65
2022/07/07 10:24:05;;;;;;;0.60;0.60;;;24.50;87.70;;;;;;4177865;28;20075;-66
2022/07/07 10:26:09;;;;;;;0.70;0.40;;;24.50;86.50;;;;;;4177685;28;20009;-66
2022/07/07 10:28:10;;;;;;;3.67;0.90;;;24.40;86.50;;;;;;4177715;28;20045;-65
2022/07/07 10:30:28;;;;;;;2.20;0.70;;;24.30;87.30;;;;;;4177202;28;20543;-66
2022/07/07 10:32:37;;;;;;;4.53;0.70;;;24.50;87.50;;;;;;4178065;28;20063;-66
2022/07/07 10:34:41;;;;;;;6.40;0.65;;;24.90;87.60;;;;;;4177746;28;20025;-65
2022/07/07 10:36:51;;;;;;;7.32;1.95;;;25.20;87.20;;;;;;4177660;28;20045;-66